Time;durP1;ratioP1;P1;durP2;ratioP2;P2;SDS_P1;SDS_P2;PMS_P1;PMS_P2;Temp;Humidity;BMP_temperature;BMP_pressure;BME280_temperature;BME280_humidity;BME280_pressure;Samples;Min_cycle;Max_cycle;Signal;HPM_P1;HPM_P2
2022/10/21 00:01:50;;;;;;;29.98;12.63;;;;;;;13.18;100.00;96198.34;5038663;28;20225;-70
2022/10/21 00:04:17;;;;;;;28.70;13.02;;;;;;;13.15;100.00;96182.84;5038036;28;20201;-72
2022/10/21 00:06:43;;;;;;;41.40;12.93;;;;;;;13.23;100.00;96163.38;5037956;28;20209;-70
2022/10/21 00:09:09;;;;;;;36.15;12.73;;;;;;;13.09;100.00;96141.28;5038304;28;20584;-71
2022/10/21 00:11:36;;;;;;;27.80;12.93;;;;;;;13.02;100.00;96140.44;5038687;28;20248;-72
2022/10/21 00:14:04;;;;;;;34.90;13.90;;;;;;;13.18;100.00;96152.56;5037729;28;20201;-71
2022/10/21 00:16:30;;;;;;;31.15;12.40;;;;;;;13.20;100.00;96161.94;5037832;28;20204;-72
2022/10/21 00:18:57;;;;;;;34.60;13.88;;;;;;;13.25;100.00;96171.91;5038041;28;20904;-72
2022/10/21 00:21:23;;;;;;;34.70;13.23;;;;;;;13.29;100.00;96167.84;5038576;28;20228;-70
2022/10/21 00:23:50;;;;;;;39.28;13.65;;;;;;;13.24;100.00;96170.28;5036992;28;20677;-72
2022/10/21 00:26:17;;;;;;;36.38;12.88;;;;;;;13.23;100.00;96169.47;5038156;28;20322;-71
2022/10/21 00:28:44;;;;;;;28.42;12.30;;;;;;;13.10;100.00;96152.72;5034743;28;20216;-71
2022/10/21 00:31:13;;;;;;;31.75;13.05;;;;;;;13.12;100.00;96155.97;5038228;28;20193;-72
2022/10/21 00:33:41;;;;;;;32.65;12.98;;;;;;;13.17;100.00;96161.50;5036640;28;20236;-71
2022/10/21 00:36:13;;;;;;;29.40;12.30;;;;;;;13.09;100.00;96166.94;5037490;28;20673;-71
2022/10/21 00:38:40;;;;;;;29.00;11.85;;;;;;;13.12;100.00;96166.53;5037179;28;20209;-71
2022/10/21 00:41:07;;;;;;;32.10;13.10;;;;;;;13.11;100.00;96154.31;5037484;28;20908;-72
2022/10/21 00:43:52;;;;;;;30.43;12.83;;;;;;;13.11;100.00;96141.94;5037567;28;20232;-70
2022/10/21 00:46:26;;;;;;;31.40;12.35;;;;;;;13.17;100.00;96140.31;5037308;28;20212;-70
2022/10/21 00:48:57;;;;;;;35.60;13.88;;;;;;;13.15;100.00;96150.28;5037177;28;20217;-71
2022/10/21 00:51:24;;;;;;;29.03;11.97;;;;;;;13.12;100.00;96150.66;5037883;28;20193;-72
2022/10/21 00:53:52;;;;;;;30.60;11.48;;;;;;;13.18;100.00;96149.91;5037710;28;20788;-70
2022/10/21 00:56:23;;;;;;;29.17;12.00;;;;;;;13.18;100.00;96137.47;5037355;28;20201;-72
2022/10/21 00:58:51;;;;;;;29.60;12.63;;;;;;;13.04;100.00;96132.31;5037543;28;20205;-73
2022/10/21 01:01:18;;;;;;;35.65;13.30;;;;;;;13.02;100.00;96134.31;5037524;28;20221;-74
2022/10/21 01:03:46;;;;;;;29.90;12.27;;;;;;;13.07;100.00;96134.56;5036605;28;20615;-69
2022/10/21 01:06:15;;;;;;;37.13;12.65;;;;;;;13.07;100.00;96126.63;5036737;28;20737;-69
2022/10/21 01:08:41;;;;;;;28.73;12.15;;;;;;;13.04;100.00;96122.53;5037904;28;20201;-72
2022/10/21 01:11:13;;;;;;;41.72;13.13;;;;;;;13.06;100.00;96128.47;5037035;28;20204;-72
2022/10/21 01:13:54;;;;;;;33.60;13.35;;;;;;;13.04;100.00;96105.88;5036588;28;20225;-72
2022/10/21 01:16:28;;;;;;;30.63;12.43;;;;;;;13.03;100.00;96099.72;5037476;28;20205;-73
2022/10/21 01:19:02;;;;;;;25.60;11.50;;;;;;;13.04;100.00;96098.72;5037184;28;20216;-73
2022/10/21 01:21:34;;;;;;;26.98;11.23;;;;;;;13.01;100.00;96100.97;5036925;28;20987;-70
2022/10/21 01:24:36;;;;;;;26.23;11.55;;;;;;;12.99;100.00;96103.78;5036433;28;20215;-71
2022/10/21 01:27:19;;;;;;;31.38;12.35;;;;;;;12.88;100.00;96114.09;5036990;28;20208;-72
2022/10/21 01:30:14;;;;;;;32.72;11.23;;;;;;;12.78;100.00;96106.47;5033117;28;20208;-71
2022/10/21 01:32:55;;;;;;;31.35;12.07;;;;;;;12.78;100.00;96110.97;5036125;28;20221;-70
2022/10/21 01:35:26;;;;;;;30.90;12.45;;;;;;;12.76;100.00;96119.06;5036429;28;20201;-71
2022/10/21 01:38:03;;;;;;;30.45;11.98;;;;;;;12.83;100.00;96111.22;5036300;28;20212;-72
2022/10/21 01:40:35;;;;;;;33.08;13.13;;;;;;;12.80;100.00;96115.06;5036528;28;20224;-72
2022/10/21 01:43:14;;;;;;;31.50;12.77;;;;;;;12.82;100.00;96128.88;5036257;28;20225;-72
2022/10/21 01:45:47;;;;;;;34.87;13.13;;;;;;;12.86;100.00;96118.78;5036665;28;20197;-72
2022/10/21 01:48:19;;;;;;;35.90;13.97;;;;;;;12.76;100.00;96112.97;5036879;28;20216;-72
2022/10/21 01:50:48;;;;;;;36.90;13.50;;;;;;;12.79;100.00;96102.00;5036610;28;21006;-72
2022/10/21 01:53:16;;;;;;;39.83;13.50;;;;;;;12.79;100.00;96108.13;5036071;28;20235;-72
2022/10/21 01:55:45;;;;;;;43.17;14.07;;;;;;;12.83;100.00;96097.97;5036765;28;20217;-72
2022/10/21 01:58:16;;;;;;;34.03;14.00;;;;;;;12.83;100.00;96095.34;5036678;28;20574;-72
2022/10/21 02:00:44;;;;;;;43.20;14.40;;;;;;;12.70;100.00;96087.28;5036477;28;20748;-72
2022/10/21 02:03:13;;;;;;;39.57;14.00;;;;;;;12.77;100.00;96088.16;5036102;28;20217;-71
2022/10/21 02:05:41;;;;;;;48.53;15.93;;;;;;;12.81;100.00;96095.50;5036204;28;20205;-72
2022/10/21 02:08:08;;;;;;;39.53;13.60;;;;;;;12.68;100.00;96105.19;5035711;28;20197;-71
2022/10/21 02:10:39;;;;;;;44.58;14.57;;;;;;;12.79;100.00;96102.00;5036568;28;20205;-72
2022/10/21 02:13:09;;;;;;;39.03;15.27;;;;;;;12.88;100.00;96100.88;5036573;28;20247;-72
2022/10/21 02:15:37;;;;;;;42.77;14.33;;;;;;;12.75;100.00;96092.81;5036160;28;20211;-72
2022/10/21 02:18:06;;;;;;;39.50;15.35;;;;;;;12.76;100.00;96097.91;5036139;28;20201;-72
2022/10/21 02:20:37;;;;;;;51.92;15.55;;;;;;;12.82;100.00;96104.28;5036604;28;20232;-72
2022/10/21 02:23:07;;;;;;;37.90;14.87;;;;;;;12.72;100.00;96079.19;5036117;28;20236;-72
2022/10/21 02:25:39;;;;;;;54.50;15.00;;;;;;;12.56;100.00;96080.28;5035874;28;20209;-72
2022/10/21 02:28:06;;;;;;;41.70;14.87;;;;;;;12.52;100.00;96063.19;5036299;28;20216;-72
2022/10/21 02:30:42;;;;;;;55.45;15.20;;;;;;;12.72;100.00;96074.72;5033294;28;20201;-72
2022/10/21 02:33:15;;;;;;;46.20;14.27;;;;;;;12.77;100.00;96073.09;5034863;28;20599;-72
2022/10/21 02:35:50;;;;;;;46.33;14.98;;;;;;;12.80;100.00;96069.25;5036458;28;20209;-72
2022/10/21 02:38:24;;;;;;;74.77;15.43;;;;;;;12.70;100.00;96070.63;5036294;28;20207;-72
2022/10/21 02:40:54;;;;;;;44.92;14.65;;;;;;;12.68;100.00;96076.13;5036059;28;20924;-72
2022/10/21 02:43:25;;;;;;;62.42;14.48;;;;;;;12.75;100.00;96053.16;5031802;28;20221;-71
2022/10/21 02:45:54;;;;;;;37.42;14.18;;;;;;;12.77;100.00;96051.16;5035914;28;20201;-71
2022/10/21 02:48:21;;;;;;;44.78;14.52;;;;;;;12.69;100.00;96059.25;5035826;28;20214;-71
2022/10/21 02:50:47;;;;;;;37.40;13.70;;;;;;;12.56;100.00;96048.56;5036146;28;20201;-72
2022/10/21 02:53:14;;;;;;;33.15;12.82;;;;;;;12.53;100.00;96038.38;5035724;28;20221;-72
2022/10/21 02:55:42;;;;;;;34.10;13.40;;;;;;;12.62;100.00;96029.28;5034808;28;20315;-72
2022/10/21 02:58:09;;;;;;;35.77;12.90;;;;;;;12.60;100.00;96027.84;5035876;28;20201;-71
2022/10/21 03:00:36;;;;;;;35.50;13.17;;;;;;;12.63;100.00;96019.56;5036119;28;20221;-72
2022/10/21 03:03:02;;;;;;;36.57;12.90;;;;;;;12.64;100.00;96018.53;5038185;28;20871;-72
2022/10/21 03:05:29;;;;;;;33.50;12.75;;;;;;;12.71;100.00;96014.91;5039459;28;20201;-72
2022/10/21 03:07:55;;;;;;;28.67;12.15;;;;;;;12.70;100.00;96013.28;5039148;28;20205;-72
2022/10/21 03:10:22;;;;;;;33.30;13.63;;;;;;;12.76;100.00;96009.84;5040034;28;20564;-72
2022/10/21 03:12:50;;;;;;;37.00;12.90;;;;;;;12.88;100.00;96006.50;5038477;28;20229;-72
2022/10/21 03:15:17;;;;;;;35.70;12.90;;;;;;;12.79;100.00;96004.16;5039257;28;20205;-72
2022/10/21 03:17:44;;;;;;;35.40;13.35;;;;;;;12.82;100.00;96007.25;5039597;28;20273;-72
2022/10/21 03:20:10;;;;;;;33.00;13.77;;;;;;;12.84;100.00;96010.53;5039108;28;20212;-72
2022/10/21 03:22:37;;;;;;;37.75;13.82;;;;;;;12.90;100.00;96022.16;5038296;28;20267;-72
2022/10/21 03:25:04;;;;;;;37.38;13.60;;;;;;;12.95;100.00;96027.69;5040154;28;20208;-72
2022/10/21 03:27:30;;;;;;;30.98;12.75;;;;;;;13.00;100.00;96017.34;5039474;28;20198;-71
2022/10/21 03:29:58;;;;;;;29.45;13.02;;;;;;;13.04;100.00;96013.28;5035766;28;20682;-72
2022/10/21 03:32:25;;;;;;;27.70;12.05;;;;;;;12.99;100.00;96013.84;5038432;28;21262;-71
2022/10/21 03:34:51;;;;;;;33.60;13.77;;;;;;;13.03;100.00;96006.34;5039393;28;20201;-71
2022/10/21 03:37:18;;;;;;;33.60;13.00;;;;;;;13.06;100.00;96005.94;5038642;28;20288;-72
2022/10/21 03:39:44;;;;;;;31.73;12.57;;;;;;;13.05;100.00;96012.28;5039128;28;20209;-72
2022/10/21 03:42:10;;;;;;;34.83;13.02;;;;;;;13.07;100.00;96010.22;5038641;28;20316;-72
2022/10/21 03:44:37;;;;;;;30.85;12.77;;;;;;;13.09;100.00;95998.44;5038110;28;20201;-72
2022/10/21 03:47:05;;;;;;;35.22;13.13;;;;;;;13.16;100.00;95985.22;5038737;28;20209;-72
2022/10/21 03:49:31;;;;;;;32.47;13.35;;;;;;;13.12;100.00;95981.34;5038694;28;20205;-72
2022/10/21 03:51:58;;;;;;;29.98;13.43;;;;;;;13.09;100.00;95976.47;5038110;28;20221;-71
2022/10/21 03:54:24;;;;;;;30.38;12.45;;;;;;;13.10;100.00;95978.09;5038498;28;20213;-71
2022/10/21 03:56:51;;;;;;;27.85;12.80;;;;;;;12.95;100.00;95969.50;5038371;28;20205;-71
2022/10/21 03:59:17;;;;;;;28.27;12.30;;;;;;;12.95;100.00;95964.22;5038269;28;21179;-71
2022/10/21 04:01:44;;;;;;;32.25;12.10;;;;;;;13.01;100.00;95969.53;5038128;28;20228;-71
2022/10/21 04:04:12;;;;;;;35.13;12.20;;;;;;;13.04;100.00;95963.03;5037935;28;20201;-71
2022/10/21 04:06:38;;;;;;;29.70;12.88;;;;;;;13.01;100.00;95955.50;5038097;28;20210;-71
2022/10/21 04:09:05;;;;;;;30.60;11.52;;;;;;;13.01;100.00;95952.84;5038313;28;20208;-72
2022/10/21 04:11:31;;;;;;;24.83;12.23;;;;;;;13.03;100.00;95950.81;5038284;28;20205;-71
2022/10/21 04:13:58;;;;;;;30.90;12.07;;;;;;;13.06;100.00;95945.94;5037296;28;20205;-72
2022/10/21 04:16:24;;;;;;;29.58;11.85;;;;;;;13.01;100.00;95942.28;5038088;28;20205;-72
2022/10/21 04:18:51;;;;;;;31.48;13.07;;;;;;;13.03;100.00;95950.81;5038339;28;20209;-72
2022/10/21 04:21:19;;;;;;;33.40;11.60;;;;;;;13.10;100.00;95931.28;5037934;28;20216;-71
2022/10/21 04:23:45;;;;;;;29.07;12.17;;;;;;;12.91;100.00;95932.03;5037538;28;20228;-71
2022/10/21 04:26:12;;;;;;;33.75;12.07;;;;;;;12.97;100.00;95935.72;5038228;28;20212;-72
2022/10/21 04:28:39;;;;;;;37.53;12.15;;;;;;;13.09;100.00;95942.88;5035990;28;20220;-72
2022/10/21 04:31:05;;;;;;;30.80;12.30;;;;;;;13.05;100.00;95938.22;5037762;28;21020;-72
2022/10/21 04:33:32;;;;;;;29.90;11.40;;;;;;;13.02;100.00;95938.59;5037119;28;20221;-72
2022/10/21 04:35:58;;;;;;;28.70;11.60;;;;;;;13.02;100.00;95939.41;5038706;28;20201;-72
2022/10/21 04:38:26;;;;;;;30.52;11.95;;;;;;;13.06;100.00;95939.81;5037948;28;20255;-71
2022/10/21 04:40:57;;;;;;;30.52;12.65;;;;;;;13.06;100.00;95945.09;5037292;28;20208;-72
2022/10/21 04:43:23;;;;;;;35.08;13.27;;;;;;;12.95;100.00;95953.63;5037291;28;20226;-72
2022/10/21 04:45:50;;;;;;;26.60;12.63;;;;;;;12.95;100.00;95943.06;5037318;28;21152;-72
2022/10/21 04:48:16;;;;;;;27.95;12.50;;;;;;;12.98;100.00;95937.34;5037696;28;20296;-71
2022/10/21 04:50:43;;;;;;;37.30;12.73;;;;;;;12.88;100.00;95937.75;5037629;28;20227;-72
2022/10/21 04:53:10;;;;;;;29.60;12.03;;;;;;;12.93;100.00;95929.19;5037042;28;21080;-72
2022/10/21 04:55:40;;;;;;;34.53;13.15;;;;;;;13.12;100.00;95928.44;5037497;28;20205;-72
2022/10/21 04:58:06;;;;;;;33.10;12.17;;;;;;;12.94;100.00;95920.25;5037527;28;20197;-72
2022/10/21 05:00:33;;;;;;;34.50;13.63;;;;;;;13.04;100.00;95920.69;5037388;28;20586;-72
2022/10/21 05:02:59;;;;;;;27.45;11.43;;;;;;;12.93;100.00;95913.34;5036636;28;20231;-72
2022/10/21 05:05:26;;;;;;;30.83;12.20;;;;;;;12.94;100.00;95915.78;5037859;28;20201;-71
2022/10/21 05:07:52;;;;;;;29.63;12.83;;;;;;;12.96;100.00;95921.69;5037509;28;20205;-72
2022/10/21 05:10:19;;;;;;;30.10;11.93;;;;;;;12.98;100.00;95922.31;5037533;28;20205;-72
2022/10/21 05:12:47;;;;;;;31.75;12.85;;;;;;;13.04;100.00;95928.63;5036463;28;20256;-72
2022/10/21 05:15:13;;;;;;;32.67;14.07;;;;;;;13.05;100.00;95936.38;5037370;28;20204;-71
2022/10/21 05:17:40;;;;;;;37.78;13.80;;;;;;;13.02;100.00;95928.00;5036928;28;20696;-72
2022/10/21 05:20:08;;;;;;;36.50;14.20;;;;;;;13.09;100.00;95932.31;5036949;28;20213;-72
2022/10/21 05:22:34;;;;;;;37.70;15.88;;;;;;;13.08;100.00;95927.22;5036336;28;20229;-72
2022/10/21 05:25:01;;;;;;;39.70;15.70;;;;;;;13.05;100.00;95928.44;5036481;28;20209;-72
2022/10/21 05:27:27;;;;;;;44.97;15.90;;;;;;;13.07;100.00;95925.56;5036850;28;20219;-71
2022/10/21 05:29:57;;;;;;;42.17;15.73;;;;;;;13.10;100.00;95923.34;5034273;28;20205;-72
2022/10/21 05:32:24;;;;;;;36.60;14.40;;;;;;;13.08;100.00;95898.91;5036429;28;20340;-72
2022/10/21 05:34:50;;;;;;;38.53;14.93;;;;;;;13.06;100.00;95902.78;5036584;28;20212;-72
2022/10/21 05:37:17;;;;;;;39.10;14.95;;;;;;;13.05;100.00;95901.19;5036781;28;20201;-72
2022/10/21 05:39:43;;;;;;;36.03;14.90;;;;;;;13.01;100.00;95892.00;5037624;28;20209;-71
2022/10/21 05:42:10;;;;;;;37.17;14.32;;;;;;;12.96;100.00;95891.78;5037085;28;20232;-72
2022/10/21 05:44:36;;;;;;;33.53;13.38;;;;;;;12.98;100.00;95897.69;5036877;28;20201;-72
2022/10/21 05:47:04;;;;;;;33.05;13.43;;;;;;;13.02;100.00;95901.56;5036898;28;20201;-72
2022/10/21 05:49:30;;;;;;;31.55;13.43;;;;;;;13.01;100.00;95889.38;5037544;28;20213;-72
2022/10/21 05:51:57;;;;;;;42.05;13.55;;;;;;;13.01;100.00;95873.50;5037216;28;20736;-71
2022/10/21 05:54:24;;;;;;;38.10;13.85;;;;;;;12.95;100.00;95882.22;5036645;28;20201;-71
2022/10/21 05:56:50;;;;;;;33.92;13.73;;;;;;;12.91;100.00;95884.44;5036909;28;21243;-72
2022/10/21 05:59:17;;;;;;;32.92;12.23;;;;;;;12.87;100.00;95882.41;5037276;28;20201;-72
2022/10/21 06:01:43;;;;;;;34.47;14.45;;;;;;;12.85;100.00;95879.94;5037154;28;20244;-71
2022/10/21 06:04:11;;;;;;;37.25;13.82;;;;;;;13.01;100.00;95884.88;5035834;28;20242;-72
2022/10/21 06:06:38;;;;;;;38.20;13.30;;;;;;;12.83;100.00;95875.88;5037102;28;20212;-71
2022/10/21 06:09:04;;;;;;;34.58;13.63;;;;;;;12.90;100.00;95866.13;5037258;28;20201;-71
2022/10/21 06:11:31;;;;;;;33.30;13.05;;;;;;;12.90;100.00;95871.44;5036923;28;20197;-72
2022/10/21 06:13:58;;;;;;;39.20;13.90;;;;;;;12.98;100.00;95874.72;5036361;28;20209;-71
2022/10/21 06:16:24;;;;;;;33.70;13.25;;;;;;;13.00;100.00;95879.78;5037000;28;20666;-72
2022/10/21 06:18:51;;;;;;;34.38;12.90;;;;;;;13.01;100.00;95878.78;5036330;28;20670;-72
2022/10/21 06:21:19;;;;;;;32.28;12.68;;;;;;;13.09;100.00;95881.25;5037111;28;20201;-72
2022/10/21 06:23:45;;;;;;;27.30;12.77;;;;;;;12.96;100.00;95897.88;5037088;28;20216;-72
2022/10/21 06:26:14;;;;;;;30.05;12.90;;;;;;;12.97;100.00;95901.34;5036541;28;20201;-72
2022/10/21 06:28:43;;;;;;;34.38;14.23;;;;;;;13.05;100.00;95895.88;5034001;28;20209;-71
2022/10/21 06:31:14;;;;;;;30.52;13.68;;;;;;;13.14;100.00;95868.22;5037175;28;20208;-73
2022/10/21 06:33:41;;;;;;;35.53;13.10;;;;;;;13.04;100.00;95846.63;5036423;28;20225;-72
2022/10/21 06:36:08;;;;;;;29.55;12.68;;;;;;;13.03;100.00;95837.06;5036295;28;20205;-72
2022/10/21 06:38:37;;;;;;;31.63;12.43;;;;;;;13.19;100.00;95828.75;5040379;28;20701;-73
2022/10/21 06:41:05;;;;;;;33.90;13.80;;;;;;;13.15;100.00;95822.22;5041269;28;20201;-72
2022/10/21 06:43:32;;;;;;;31.95;12.32;;;;;;;13.19;100.00;95832.22;5038279;28;20228;-72
2022/10/21 06:46:00;;;;;;;28.33;12.55;;;;;;;13.18;100.00;95843.00;5040131;28;20214;-72
2022/10/21 06:48:27;;;;;;;32.28;13.05;;;;;;;13.32;100.00;95863.16;5039887;28;20216;-72
2022/10/21 06:50:57;;;;;;;25.10;11.90;;;;;;;13.50;100.00;95865.00;5039664;28;20209;-72
2022/10/21 06:53:23;;;;;;;28.65;12.13;;;;;;;13.44;100.00;95865.81;5039372;28;20213;-72
2022/10/21 06:55:59;;;;;;;25.63;12.02;;;;;;;13.66;100.00;95885.75;5039660;28;20205;-72
2022/10/21 06:58:25;;;;;;;27.55;12.77;;;;;;;13.59;100.00;95887.59;5039493;28;20448;-71
2022/10/21 07:00:52;;;;;;;24.60;11.57;;;;;;;13.61;100.00;95893.50;5038900;28;20223;-71
2022/10/21 07:03:18;;;;;;;29.58;11.90;;;;;;;13.59;100.00;95895.56;5037752;28;20237;-71
2022/10/21 07:05:45;;;;;;;27.92;12.82;;;;;;;13.61;100.00;95903.28;5039680;28;20212;-73
2022/10/21 07:08:11;;;;;;;26.35;12.02;;;;;;;13.64;100.00;95905.50;5039343;28;20208;-72
2022/10/21 07:10:38;;;;;;;23.42;11.52;;;;;;;13.71;100.00;95914.25;5039294;28;20216;-71
2022/10/21 07:13:05;;;;;;;25.92;11.52;;;;;;;13.78;100.00;95915.91;5038009;28;20267;-73
2022/10/21 07:15:32;;;;;;;21.83;10.65;;;;;;;13.71;100.00;95909.78;5037909;28;20209;-73
2022/10/21 07:17:59;;;;;;;25.58;11.95;;;;;;;13.68;100.00;95907.56;5039513;28;20583;-72
2022/10/21 07:20:26;;;;;;;22.50;10.40;;;;;;;13.67;100.00;95905.94;5039817;28;20300;-72
2022/10/21 07:22:53;;;;;;;22.80;11.50;;;;;;;13.63;100.00;95914.47;5038126;28;20225;-72
2022/10/21 07:25:19;;;;;;;20.67;10.52;;;;;;;13.58;100.00;95908.97;5038769;28;20208;-72
2022/10/21 07:27:49;;;;;;;25.15;11.25;;;;;;;13.66;100.00;95901.66;5037873;28;20224;-73
2022/10/21 07:30:17;;;;;;;27.48;12.40;;;;;;;13.68;100.00;95893.50;5035597;28;20219;-72
2022/10/21 07:32:43;;;;;;;26.85;11.85;;;;;;;13.48;100.00;95882.91;5038277;28;20221;-72
2022/10/21 07:35:10;;;;;;;27.08;12.10;;;;;;;13.46;100.00;95873.53;5038919;28;20205;-71
2022/10/21 07:37:36;;;;;;;27.88;11.88;;;;;;;13.25;100.00;95864.97;5039176;28;20331;-73
2022/10/21 07:40:04;;;;;;;26.67;11.43;;;;;;;13.38;100.00;95864.97;5038103;28;20460;-73
2022/10/21 07:42:31;;;;;;;25.10;11.93;;;;;;;13.36;100.00;95851.16;5038443;28;20261;-73
2022/10/21 07:44:59;;;;;;;21.75;10.77;;;;;;;13.44;100.00;95844.63;5038409;28;20557;-72
2022/10/21 07:47:27;;;;;;;27.92;12.15;;;;;;;13.50;100.00;95843.81;5037833;28;20212;-72
2022/10/21 07:49:54;;;;;;;24.88;11.40;;;;;;;13.40;100.00;95856.66;5037703;28;20805;-72
2022/10/21 07:52:20;;;;;;;24.90;11.80;;;;;;;13.39;100.00;95862.16;5037466;28;20412;-73
2022/10/21 07:54:47;;;;;;;29.77;11.55;;;;;;;13.37;100.00;95868.66;5037894;28;20212;-72
2022/10/21 07:57:13;;;;;;;34.08;11.77;;;;;;;13.37;100.00;95879.25;5037934;28;20708;-73
2022/10/21 07:59:40;;;;;;;26.23;11.77;;;;;;;13.20;100.00;95904.44;5038529;28;20205;-73
2022/10/21 08:02:06;;;;;;;27.02;12.55;;;;;;;13.15;100.00;95917.44;5037342;28;20721;-73
2022/10/21 08:04:34;;;;;;;27.98;12.88;;;;;;;12.97;100.00;95956.88;5037922;28;20204;-73
2022/10/21 08:07:01;;;;;;;27.58;13.07;;;;;;;12.98;100.00;95977.03;5035217;28;21022;-73
2022/10/21 08:09:27;;;;;;;28.05;12.00;;;;;;;12.95;100.00;95994.09;5038099;28;20211;-72
2022/10/21 08:11:54;;;;;;;27.80;12.97;;;;;;;13.10;100.00;95999.28;5037930;28;20225;-72
2022/10/21 08:14:20;;;;;;;28.63;12.60;;;;;;;13.05;100.00;96013.06;5037901;28;20208;-72
2022/10/21 08:16:51;;;;;;;30.15;12.98;;;;;;;13.15;100.00;95994.19;5038106;28;20220;-72
2022/10/21 08:19:20;;;;;;;26.20;12.88;;;;;;;13.15;100.00;96002.13;5038334;28;20200;-73
2022/10/21 08:21:48;;;;;;;30.65;13.10;;;;;;;13.29;100.00;96009.09;5038103;28;20221;-72
2022/10/21 08:24:14;;;;;;;29.45;12.43;;;;;;;13.27;100.00;96021.72;5036940;28;20205;-72
2022/10/21 08:26:41;;;;;;;28.02;12.55;;;;;;;13.39;100.00;96015.66;5036957;28;20386;-73
2022/10/21 08:29:07;;;;;;;28.38;12.95;;;;;;;13.33;100.00;96005.03;5037005;28;20201;-73
2022/10/21 08:31:34;;;;;;;28.83;12.75;;;;;;;13.46;100.00;96006.69;5037298;28;20407;-72
2022/10/21 08:34:00;;;;;;;28.73;13.02;;;;;;;13.53;100.00;96018.13;5036093;28;20201;-72
2022/10/21 08:36:27;;;;;;;29.85;13.82;;;;;;;13.54;100.00;96029.53;5037189;28;20205;-72
2022/10/21 08:38:55;;;;;;;27.55;13.55;;;;;;;13.70;100.00;96035.25;5037986;28;20204;-73
2022/10/21 08:41:46;;;;;;;28.38;13.27;;;;;;;13.82;100.00;96032.84;5037650;28;20201;-72
2022/10/21 08:44:23;;;;;;;25.75;12.27;;;;;;;13.82;100.00;96060.13;5037271;28;20221;-73
2022/10/21 08:46:56;;;;;;;32.05;13.90;;;;;;;13.71;100.00;96073.97;5038219;28;20197;-73
2022/10/21 08:49:26;;;;;;;26.88;12.82;;;;;;;13.78;100.00;96080.09;5037057;28;20205;-73
2022/10/21 08:51:58;;;;;;;29.05;12.15;;;;;;;13.76;100.00;96082.16;5035230;28;20225;-73
2022/10/21 08:54:37;;;;;;;30.85;12.27;;;;;;;13.76;100.00;96070.72;5037962;28;20204;-72
2022/10/21 08:57:03;;;;;;;34.95;13.60;;;;;;;13.77;100.00;96067.91;5036956;28;20208;-72
2022/10/21 08:59:30;;;;;;;41.13;14.93;;;;;;;13.87;100.00;96062.19;5037232;28;20212;-72
2022/10/21 09:02:06;;;;;;;31.73;14.43;;;;;;;14.10;100.00;96059.00;5036294;28;20233;-72
2022/10/21 09:04:43;;;;;;;29.67;14.13;;;;;;;14.16;100.00;96046.78;5036805;28;20868;-72
2022/10/21 09:07:18;;;;;;;38.55;14.15;;;;;;;14.23;100.00;96011.31;5034883;28;20204;-71
2022/10/21 09:09:52;;;;;;;32.65;14.60;;;;;;;14.09;100.00;95966.44;5036560;28;20299;-71
2022/10/21 09:12:28;;;;;;;28.38;13.57;;;;;;;14.12;100.00;95945.66;5035824;28;20708;-71
2022/10/21 09:15:06;;;;;;;31.90;14.38;;;;;;;14.11;100.00;95928.13;5034490;28;20212;-73
2022/10/21 09:17:52;;;;;;;32.28;13.95;;;;;;;14.36;100.00;95933.63;5036519;28;20201;-72
2022/10/21 09:20:33;;;;;;;39.58;14.82;;;;;;;14.41;100.00;95936.44;5036585;28;20193;-72
2022/10/21 09:23:11;;;;;;;34.22;14.63;;;;;;;14.55;100.00;95945.97;5035960;28;20248;-73
2022/10/21 09:25:48;;;;;;;40.45;15.25;;;;;;;14.81;100.00;95946.72;5036782;28;21003;-73
2022/10/21 09:28:15;;;;;;;159.73;61.35;;;;;;;14.94;100.00;95936.06;5035768;28;20232;-74
2022/10/21 09:30:44;;;;;;;55.85;22.65;;;;;;;15.09;100.00;95934.75;5036202;28;20205;-74
2022/10/21 09:33:16;;;;;;;39.28;15.15;;;;;;;15.17;100.00;95923.91;5033755;28;20232;-73
2022/10/21 09:35:48;;;;;;;35.15;13.93;;;;;;;15.32;100.00;95913.84;5034973;28;20842;-71
2022/10/21 09:38:20;;;;;;;33.38;13.43;;;;;;;15.41;100.00;95908.09;5035665;28;20200;-71
2022/10/21 09:40:51;;;;;;;38.85;13.88;;;;;;;15.52;100.00;95911.88;5035514;28;20224;-73
2022/10/21 09:43:22;;;;;;;30.60;13.13;;;;;;;15.63;100.00;95911.19;5032724;28;20236;-71
2022/10/21 09:45:49;;;;;;;28.80;11.48;;;;;;;15.62;100.00;95920.19;5035890;28;20204;-73
2022/10/21 09:48:26;;;;;;;24.55;10.95;;;;;;;15.72;100.00;95888.63;5035999;28;20257;-73
2022/10/21 09:50:56;;;;;;;28.92;11.25;;;;;;;15.66;100.00;95892.19;5036788;28;20296;-72
2022/10/21 09:53:27;;;;;;;28.38;11.27;;;;;;;15.66;100.00;95916.88;5036383;28;20216;-72
2022/10/21 09:56:02;;;;;;;23.40;11.30;;;;;;;15.84;100.00;95920.41;5036190;28;20690;-72
2022/10/21 09:58:43;;;;;;;26.33;11.15;;;;;;;15.81;100.00;95941.31;5036366;28;20610;-72
2022/10/21 10:01:16;;;;;;;33.83;12.43;;;;;;;15.90;100.00;95956.75;5035123;28;20204;-72
2022/10/21 10:03:45;;;;;;;28.92;12.15;;;;;;;15.82;100.00;95950.88;5034743;28;20338;-72
2022/10/21 10:06:12;;;;;;;30.52;12.15;;;;;;;15.81;100.00;95951.94;5034906;28;20208;-72
2022/10/21 10:08:41;;;;;;;25.20;11.50;;;;;;;15.92;100.00;95964.50;5036644;28;20205;-72
2022/10/21 10:11:15;;;;;;;28.20;11.35;;;;;;;15.94;100.00;95976.53;5038780;28;20216;-72
2022/10/21 10:13:44;;;;;;;21.83;9.57;;;;;;;15.92;100.00;95991.91;5039823;28;20231;-72
2022/10/21 10:16:15;;;;;;;23.55;10.15;;;;;;;15.89;100.00;95994.97;5040806;28;20201;-72
2022/10/21 10:18:43;;;;;;;26.85;10.90;;;;;;;15.80;100.00;96003.44;5041132;28;20219;-72
2022/10/21 10:21:11;;;;;;;24.88;11.65;;;;;;;15.86;100.00;95998.06;5040610;28;20662;-72
2022/10/21 10:23:43;;;;;;;25.60;11.98;;;;;;;15.96;100.00;96029.47;5040023;28;20248;-72
2022/10/21 10:26:11;;;;;;;27.48;12.73;;;;;;;15.89;100.00;96007.47;5040917;28;20201;-72
2022/10/21 10:28:39;;;;;;;31.42;13.82;;;;;;;15.85;100.00;96028.31;5040215;28;20216;-72
2022/10/21 10:31:06;;;;;;;26.40;12.63;;;;;;;15.72;100.00;96062.16;5040217;28;20267;-72
2022/10/21 10:33:35;;;;;;;24.58;10.98;;;;;;;15.71;100.00;96043.75;5039885;28;20275;-72
2022/10/21 10:36:05;;;;;;;30.60;12.45;;;;;;;15.82;100.00;96069.66;5040106;28;20201;-72
2022/10/21 10:38:35;;;;;;;30.80;12.07;;;;;;;15.84;100.00;96049.81;5040363;28;20201;-72
2022/10/21 10:41:07;;;;;;;26.58;11.70;;;;;;;15.94;100.00;96011.09;5040184;28;20682;-72
2022/10/21 10:43:36;;;;;;;32.08;11.88;;;;;;;15.99;100.00;96003.28;5037558;28;20221;-72
2022/10/21 10:46:07;;;;;;;28.88;12.07;;;;;;;16.07;100.00;96000.38;5039736;28;20205;-72
2022/10/21 10:48:38;;;;;;;24.33;12.15;;;;;;;16.13;100.00;95994.19;5039937;28;20987;-72
2022/10/21 10:51:07;;;;;;;23.77;11.25;;;;;;;16.18;100.00;96002.34;5040302;28;20205;-72
2022/10/21 10:53:35;;;;;;;27.92;12.55;;;;;;;16.30;100.00;96016.56;5039089;28;20213;-72
2022/10/21 10:56:12;;;;;;;34.28;12.90;;;;;;;16.47;100.00;96014.19;5040010;28;20218;-72
2022/10/21 10:58:44;;;;;;;30.17;12.02;;;;;;;16.55;100.00;96017.41;5040167;28;20665;-72
2022/10/21 11:01:17;;;;;;;30.15;12.13;;;;;;;16.62;100.00;96016.31;5039250;28;20263;-72
2022/10/21 11:03:48;;;;;;;32.55;12.40;;;;;;;16.61;100.00;96019.16;5038919;28;20228;-72
2022/10/21 11:06:16;;;;;;;29.52;13.80;;;;;;;16.58;100.00;96009.75;5039299;28;20197;-72
2022/10/21 11:08:47;;;;;;;32.35;12.23;;;;;;;16.68;100.00;96020.72;5038930;28;20212;-72
2022/10/21 11:11:22;;;;;;;26.63;11.70;;;;;;;16.58;100.00;96024.94;5039377;28;20205;-72
2022/10/21 11:13:48;;;;;;;26.02;10.98;;;;;;;16.59;100.00;96034.53;5039622;28;20248;-72
2022/10/21 11:16:31;;;;;;;24.65;10.38;;;;;;;16.55;100.00;96031.50;5039333;28;20867;-72
2022/10/21 11:19:07;;;;;;;23.80;9.55;;;;;;;16.63;100.00;96017.91;5039467;28;20571;-72